sensor_id;sensor_type;location;lat;lon;timestamp;P1;durP1;ratioP1;P2;durP2;ratioP2
4409;SDS011;2218;51.408;7.208;2023-09-18T00:02:24;2.03;;;1.83;;
4409;SDS011;2218;51.408;7.208;2023-09-18T00:04:53;1.80;;;1.70;;
4409;SDS011;2218;51.408;7.208;2023-09-18T00:07:21;1.77;;;1.67;;
4409;SDS011;2218;51.408;7.208;2023-09-18T00:09:48;1.63;;;1.53;;
4409;SDS011;2218;51.408;7.208;2023-09-18T00:12:16;1.60;;;1.50;;
4409;SDS011;2218;51.408;7.208;2023-09-18T00:14:43;1.67;;;1.57;;
4409;SDS011;2218;51.408;7.208;2023-09-18T00:17:13;1.77;;;1.67;;
4409;SDS011;2218;51.408;7.208;2023-09-18T00:19:41;1.67;;;1.57;;
4409;SDS011;2218;51.408;7.208;2023-09-18T00:22:09;1.80;;;1.70;;
4409;SDS011;2218;51.408;7.208;2023-09-18T00:24:38;1.53;;;1.43;;
4409;SDS011;2218;51.408;7.208;2023-09-18T00:27:05;1.83;;;1.73;;
4409;SDS011;2218;51.408;7.208;2023-09-18T00:29:32;1.77;;;1.67;;
4409;SDS011;2218;51.408;7.208;2023-09-18T00:31:59;1.53;;;1.43;;
4409;SDS011;2218;51.408;7.208;2023-09-18T00:34:26;1.80;;;1.70;;
4409;SDS011;2218;51.408;7.208;2023-09-18T00:36:53;1.80;;;1.70;;
4409;SDS011;2218;51.408;7.208;2023-09-18T00:39:19;1.70;;;1.60;;
4409;SDS011;2218;51.408;7.208;2023-09-18T00:41:48;1.60;;;1.50;;
4409;SDS011;2218;51.408;7.208;2023-09-18T00:44:19;1.73;;;1.63;;
4409;SDS011;2218;51.408;7.208;2023-09-18T00:46:46;1.60;;;1.50;;
4409;SDS011;2218;51.408;7.208;2023-09-18T00:49:14;1.90;;;1.80;;
4409;SDS011;2218;51.408;7.208;2023-09-18T00:51:43;1.73;;;1.63;;
4409;SDS011;2218;51.408;7.208;2023-09-18T00:54:12;1.47;;;1.37;;
4409;SDS011;2218;51.408;7.208;2023-09-18T00:56:44;1.80;;;1.70;;
4409;SDS011;2218;51.408;7.208;2023-09-18T00:59:14;1.43;;;1.33;;
4409;SDS011;2218;51.408;7.208;2023-09-18T01:01:41;1.50;;;1.40;;
4409;SDS011;2218;51.408;7.208;2023-09-18T01:04:10;1.53;;;1.43;;
4409;SDS011;2218;51.408;7.208;2023-09-18T01:06:39;1.60;;;1.50;;
4409;SDS011;2218;51.408;7.208;2023-09-18T01:09:06;1.63;;;1.53;;
4409;SDS011;2218;51.408;7.208;2023-09-18T01:11:40;1.70;;;1.60;;
4409;SDS011;2218;51.408;7.208;2023-09-18T01:14:20;1.73;;;1.20;;
4409;SDS011;2218;51.408;7.208;2023-09-18T01:16:58;1.53;;;1.43;;
4409;SDS011;2218;51.408;7.208;2023-09-18T01:19:34;1.57;;;1.47;;
4409;SDS011;2218;51.408;7.208;2023-09-18T01:22:03;1.60;;;1.50;;
4409;SDS011;2218;51.408;7.208;2023-09-18T01:24:31;1.93;;;1.83;;
4409;SDS011;2218;51.408;7.208;2023-09-18T01:26:59;1.70;;;1.60;;
4409;SDS011;2218;51.408;7.208;2023-09-18T01:29:26;1.30;;;1.20;;
4409;SDS011;2218;51.408;7.208;2023-09-18T01:31:54;1.80;;;1.70;;
4409;SDS011;2218;51.408;7.208;2023-09-18T01:34:21;1.67;;;1.57;;
4409;SDS011;2218;51.408;7.208;2023-09-18T01:36:56;1.87;;;1.77;;
4409;SDS011;2218;51.408;7.208;2023-09-18T01:39:25;1.63;;;1.53;;
4409;SDS011;2218;51.408;7.208;2023-09-18T01:41:58;1.50;;;1.40;;
4409;SDS011;2218;51.408;7.208;2023-09-18T01:44:27;1.57;;;1.47;;
4409;SDS011;2218;51.408;7.208;2023-09-18T01:46:55;1.40;;;1.30;;
4409;SDS011;2218;51.408;7.208;2023-09-18T01:49:28;1.97;;;1.87;;
4409;SDS011;2218;51.408;7.208;2023-09-18T01:51:56;1.33;;;1.23;;
4409;SDS011;2218;51.408;7.208;2023-09-18T01:54:23;1.70;;;1.60;;
4409;SDS011;2218;51.408;7.208;2023-09-18T01:56:51;1.57;;;1.47;;
4409;SDS011;2218;51.408;7.208;2023-09-18T01:59:20;2.00;;;1.90;;
4409;SDS011;2218;51.408;7.208;2023-09-18T02:01:49;1.73;;;1.63;;
4409;SDS011;2218;51.408;7.208;2023-09-18T02:04:17;1.60;;;1.50;;
4409;SDS011;2218;51.408;7.208;2023-09-18T02:06:45;1.50;;;1.40;;
4409;SDS011;2218;51.408;7.208;2023-09-18T02:09:15;1.47;;;1.37;;
4409;SDS011;2218;51.408;7.208;2023-09-18T02:11:43;1.47;;;1.37;;
4409;SDS011;2218;51.408;7.208;2023-09-18T02:14:12;1.20;;;1.20;;
4409;SDS011;2218;51.408;7.208;2023-09-18T02:16:41;1.50;;;1.40;;
4409;SDS011;2218;51.408;7.208;2023-09-18T02:19:10;1.50;;;1.40;;
4409;SDS011;2218;51.408;7.208;2023-09-18T02:21:39;1.60;;;1.50;;
4409;SDS011;2218;51.408;7.208;2023-09-18T02:24:07;1.53;;;1.43;;
4409;SDS011;2218;51.408;7.208;2023-09-18T02:26:34;3.17;;;1.50;;
4409;SDS011;2218;51.408;7.208;2023-09-18T02:29:02;1.83;;;1.73;;
4409;SDS011;2218;51.408;7.208;2023-09-18T02:31:32;1.90;;;1.80;;
4409;SDS011;2218;51.408;7.208;2023-09-18T02:34:01;1.50;;;1.40;;
4409;SDS011;2218;51.408;7.208;2023-09-18T02:36:28;1.30;;;1.20;;
4409;SDS011;2218;51.408;7.208;2023-09-18T02:38:54;1.90;;;1.53;;
4409;SDS011;2218;51.408;7.208;2023-09-18T02:41:22;1.43;;;1.37;;
4409;SDS011;2218;51.408;7.208;2023-09-18T02:43:48;1.47;;;1.37;;
4409;SDS011;2218;51.408;7.208;2023-09-18T02:46:15;1.70;;;1.60;;
4409;SDS011;2218;51.408;7.208;2023-09-18T02:48:42;1.70;;;1.60;;
4409;SDS011;2218;51.408;7.208;2023-09-18T02:51:11;1.70;;;1.60;;
4409;SDS011;2218;51.408;7.208;2023-09-18T02:53:38;1.60;;;1.50;;
4409;SDS011;2218;51.408;7.208;2023-09-18T02:56:05;1.40;;;1.30;;
4409;SDS011;2218;51.408;7.208;2023-09-18T02:58:33;1.63;;;1.53;;
4409;SDS011;2218;51.408;7.208;2023-09-18T03:00:59;1.00;;;1.00;;
4409;SDS011;2218;51.408;7.208;2023-09-18T03:03:29;1.60;;;1.50;;
4409;SDS011;2218;51.408;7.208;2023-09-18T03:06:01;1.80;;;1.70;;
4409;SDS011;2218;51.408;7.208;2023-09-18T03:08:30;1.60;;;1.50;;
4409;SDS011;2218;51.408;7.208;2023-09-18T03:10:57;1.53;;;1.43;;
4409;SDS011;2218;51.408;7.208;2023-09-18T03:13:25;1.60;;;1.50;;
4409;SDS011;2218;51.408;7.208;2023-09-18T03:15:54;1.57;;;1.47;;
4409;SDS011;2218;51.408;7.208;2023-09-18T03:18:23;1.13;;;1.13;;
4409;SDS011;2218;51.408;7.208;2023-09-18T03:20:50;1.80;;;1.70;;
4409;SDS011;2218;51.408;7.208;2023-09-18T03:23:18;1.83;;;1.67;;
4409;SDS011;2218;51.408;7.208;2023-09-18T03:25:46;1.40;;;1.30;;
4409;SDS011;2218;51.408;7.208;2023-09-18T03:28:13;1.40;;;1.30;;
4409;SDS011;2218;51.408;7.208;2023-09-18T03:30:40;1.43;;;1.33;;
4409;SDS011;2218;51.408;7.208;2023-09-18T03:33:07;1.50;;;1.40;;
4409;SDS011;2218;51.408;7.208;2023-09-18T03:35:37;1.60;;;1.50;;
4409;SDS011;2218;51.408;7.208;2023-09-18T03:38:13;1.47;;;1.37;;
4409;SDS011;2218;51.408;7.208;2023-09-18T03:40:41;1.73;;;1.63;;
4409;SDS011;2218;51.408;7.208;2023-09-18T03:43:10;1.87;;;1.77;;
4409;SDS011;2218;51.408;7.208;2023-09-18T03:45:38;1.50;;;1.40;;
4409;SDS011;2218;51.408;7.208;2023-09-18T03:48:06;1.47;;;1.37;;
4409;SDS011;2218;51.408;7.208;2023-09-18T03:50:33;1.50;;;1.40;;
4409;SDS011;2218;51.408;7.208;2023-09-18T03:53:00;1.70;;;1.60;;
4409;SDS011;2218;51.408;7.208;2023-09-18T03:55:27;1.33;;;1.23;;
4409;SDS011;2218;51.408;7.208;2023-09-18T03:57:55;1.60;;;1.50;;
4409;SDS011;2218;51.408;7.208;2023-09-18T04:00:23;1.73;;;1.40;;
4409;SDS011;2218;51.408;7.208;2023-09-18T04:02:50;1.50;;;1.40;;
4409;SDS011;2218;51.408;7.208;2023-09-18T04:05:17;1.50;;;1.40;;
4409;SDS011;2218;51.408;7.208;2023-09-18T04:07:44;1.50;;;1.40;;
4409;SDS011;2218;51.408;7.208;2023-09-18T04:10:12;1.40;;;1.30;;
4409;SDS011;2218;51.408;7.208;2023-09-18T04:12:44;1.33;;;1.23;;
4409;SDS011;2218;51.408;7.208;2023-09-18T04:15:13;1.50;;;1.40;;
4409;SDS011;2218;51.408;7.208;2023-09-18T04:17:43;1.30;;;1.20;;
4409;SDS011;2218;51.408;7.208;2023-09-18T04:20:11;1.50;;;1.40;;
4409;SDS011;2218;51.408;7.208;2023-09-18T04:22:43;1.40;;;1.30;;
4409;SDS011;2218;51.408;7.208;2023-09-18T04:25:14;1.47;;;1.37;;
4409;SDS011;2218;51.408;7.208;2023-09-18T04:27:44;1.50;;;1.40;;
4409;SDS011;2218;51.408;7.208;2023-09-18T04:30:11;1.50;;;1.40;;
4409;SDS011;2218;51.408;7.208;2023-09-18T04:32:40;1.80;;;1.70;;
4409;SDS011;2218;51.408;7.208;2023-09-18T04:35:08;1.23;;;1.10;;
4409;SDS011;2218;51.408;7.208;2023-09-18T04:37:37;1.40;;;1.30;;
4409;SDS011;2218;51.408;7.208;2023-09-18T04:40:08;1.60;;;1.50;;
4409;SDS011;2218;51.408;7.208;2023-09-18T04:42:36;1.43;;;1.33;;
4409;SDS011;2218;51.408;7.208;2023-09-18T04:45:06;1.20;;;1.10;;
4409;SDS011;2218;51.408;7.208;2023-09-18T04:47:35;1.40;;;1.30;;
4409;SDS011;2218;51.408;7.208;2023-09-18T04:50:01;2.43;;;1.57;;
4409;SDS011;2218;51.408;7.208;2023-09-18T04:52:32;1.67;;;1.57;;
4409;SDS011;2218;51.408;7.208;2023-09-18T04:54:59;1.87;;;1.40;;
4409;SDS011;2218;51.408;7.208;2023-09-18T04:57:26;1.43;;;1.33;;
4409;SDS011;2218;51.408;7.208;2023-09-18T04:59:53;1.33;;;1.23;;
4409;SDS011;2218;51.408;7.208;2023-09-18T05:02:20;1.50;;;1.40;;
4409;SDS011;2218;51.408;7.208;2023-09-18T05:04:47;1.30;;;1.20;;
4409;SDS011;2218;51.408;7.208;2023-09-18T05:07:16;1.90;;;1.80;;
4409;SDS011;2218;51.408;7.208;2023-09-18T05:09:44;1.87;;;1.50;;
4409;SDS011;2218;51.408;7.208;2023-09-18T05:12:12;3.10;;;1.60;;
4409;SDS011;2218;51.408;7.208;2023-09-18T05:14:41;1.33;;;1.23;;
4409;SDS011;2218;51.408;7.208;2023-09-18T05:17:09;1.10;;;1.10;;
4409;SDS011;2218;51.408;7.208;2023-09-18T05:19:40;1.57;;;1.47;;
4409;SDS011;2218;51.408;7.208;2023-09-18T05:22:07;2.17;;;1.50;;
4409;SDS011;2218;51.408;7.208;2023-09-18T05:24:35;1.47;;;1.37;;
4409;SDS011;2218;51.408;7.208;2023-09-18T05:27:04;1.60;;;1.50;;
4409;SDS011;2218;51.408;7.208;2023-09-18T05:29:32;1.40;;;1.30;;
4409;SDS011;2218;51.408;7.208;2023-09-18T05:32:01;1.50;;;1.40;;
4409;SDS011;2218;51.408;7.208;2023-09-18T05:34:29;2.47;;;1.50;;
4409;SDS011;2218;51.408;7.208;2023-09-18T05:36:56;1.70;;;1.60;;
4409;SDS011;2218;51.408;7.208;2023-09-18T05:39:23;1.37;;;1.27;;
4409;SDS011;2218;51.408;7.208;2023-09-18T05:41:50;1.73;;;1.30;;
4409;SDS011;2218;51.408;7.208;2023-09-18T05:44:19;1.50;;;1.40;;
4409;SDS011;2218;51.408;7.208;2023-09-18T05:46:45;1.43;;;1.33;;
4409;SDS011;2218;51.408;7.208;2023-09-18T05:49:12;1.40;;;1.30;;
4409;SDS011;2218;51.408;7.208;2023-09-18T05:51:39;1.80;;;1.43;;
4409;SDS011;2218;51.408;7.208;2023-09-18T05:54:06;1.57;;;1.47;;
4409;SDS011;2218;51.408;7.208;2023-09-18T05:56:33;1.47;;;1.37;;
4409;SDS011;2218;51.408;7.208;2023-09-18T05:59:00;1.20;;;1.10;;
4409;SDS011;2218;51.408;7.208;2023-09-18T06:01:29;1.40;;;1.30;;
4409;SDS011;2218;51.408;7.208;2023-09-18T06:03:56;4.10;;;1.50;;
4409;SDS011;2218;51.408;7.208;2023-09-18T06:06:22;4.10;;;1.73;;
4409;SDS011;2218;51.408;7.208;2023-09-18T06:08:50;3.97;;;2.27;;
4409;SDS011;2218;51.408;7.208;2023-09-18T06:11:18;9.80;;;2.97;;
4409;SDS011;2218;51.408;7.208;2023-09-18T06:13:45;6.50;;;3.13;;
4409;SDS011;2218;51.408;7.208;2023-09-18T06:16:12;9.60;;;3.33;;
4409;SDS011;2218;51.408;7.208;2023-09-18T06:18:41;7.80;;;3.97;;
4409;SDS011;2218;51.408;7.208;2023-09-18T06:21:09;8.73;;;2.97;;
4409;SDS011;2218;51.408;7.208;2023-09-18T06:23:36;10.23;;;3.30;;
4409;SDS011;2218;51.408;7.208;2023-09-18T06:26:03;5.83;;;2.53;;
4409;SDS011;2218;51.408;7.208;2023-09-18T06:28:29;7.40;;;2.60;;
4409;SDS011;2218;51.408;7.208;2023-09-18T06:30:59;13.67;;;3.40;;
4409;SDS011;2218;51.408;7.208;2023-09-18T06:33:26;14.17;;;2.83;;
4409;SDS011;2218;51.408;7.208;2023-09-18T06:35:55;11.47;;;3.20;;
4409;SDS011;2218;51.408;7.208;2023-09-18T06:38:21;14.33;;;4.00;;
4409;SDS011;2218;51.408;7.208;2023-09-18T06:40:48;10.70;;;2.70;;
4409;SDS011;2218;51.408;7.208;2023-09-18T06:43:16;8.20;;;3.00;;
4409;SDS011;2218;51.408;7.208;2023-09-18T06:45:44;5.43;;;2.87;;
4409;SDS011;2218;51.408;7.208;2023-09-18T06:48:10;6.83;;;2.77;;
4409;SDS011;2218;51.408;7.208;2023-09-18T06:50:39;8.23;;;2.70;;
4409;SDS011;2218;51.408;7.208;2023-09-18T06:53:07;7.30;;;2.60;;
4409;SDS011;2218;51.408;7.208;2023-09-18T06:55:35;10.00;;;3.17;;
4409;SDS011;2218;51.408;7.208;2023-09-18T06:58:02;7.30;;;2.60;;
4409;SDS011;2218;51.408;7.208;2023-09-18T07:00:29;8.20;;;2.93;;
4409;SDS011;2218;51.408;7.208;2023-09-18T07:02:56;5.50;;;2.40;;
4409;SDS011;2218;51.408;7.208;2023-09-18T07:05:23;8.40;;;2.60;;
4409;SDS011;2218;51.408;7.208;2023-09-18T07:07:50;7.53;;;2.63;;
4409;SDS011;2218;51.408;7.208;2023-09-18T07:10:18;9.83;;;2.80;;
4409;SDS011;2218;51.408;7.208;2023-09-18T07:12:45;5.10;;;2.30;;
4409;SDS011;2218;51.408;7.208;2023-09-18T07:15:12;3.23;;;1.90;;
4409;SDS011;2218;51.408;7.208;2023-09-18T07:17:39;8.10;;;2.33;;
4409;SDS011;2218;51.408;7.208;2023-09-18T07:20:06;5.63;;;2.57;;
4409;SDS011;2218;51.408;7.208;2023-09-18T07:22:38;5.13;;;2.00;;
4409;SDS011;2218;51.408;7.208;2023-09-18T07:25:06;3.33;;;1.97;;
4409;SDS011;2218;51.408;7.208;2023-09-18T07:27:34;9.37;;;2.10;;
4409;SDS011;2218;51.408;7.208;2023-09-18T07:30:09;7.47;;;2.10;;
4409;SDS011;2218;51.408;7.208;2023-09-18T07:32:38;2.20;;;1.90;;
4409;SDS011;2218;51.408;7.208;2023-09-18T07:35:07;2.73;;;1.90;;
4409;SDS011;2218;51.408;7.208;2023-09-18T07:37:35;3.30;;;2.10;;
4409;SDS011;2218;51.408;7.208;2023-09-18T07:40:06;5.00;;;1.93;;
4409;SDS011;2218;51.408;7.208;2023-09-18T07:42:35;7.33;;;2.00;;
4409;SDS011;2218;51.408;7.208;2023-09-18T07:45:02;3.60;;;2.10;;
4409;SDS011;2218;51.408;7.208;2023-09-18T07:47:30;3.30;;;1.93;;
4409;SDS011;2218;51.408;7.208;2023-09-18T07:49:57;4.50;;;1.97;;
4409;SDS011;2218;51.408;7.208;2023-09-18T07:52:24;4.90;;;1.97;;
4409;SDS011;2218;51.408;7.208;2023-09-18T07:54:51;7.83;;;2.20;;
4409;SDS011;2218;51.408;7.208;2023-09-18T07:57:18;6.40;;;2.23;;
4409;SDS011;2218;51.408;7.208;2023-09-18T07:59:47;2.70;;;1.70;;
4409;SDS011;2218;51.408;7.208;2023-09-18T08:02:14;4.47;;;2.30;;
4409;SDS011;2218;51.408;7.208;2023-09-18T08:04:42;5.13;;;2.23;;
4409;SDS011;2218;51.408;7.208;2023-09-18T08:07:09;6.17;;;2.57;;
4409;SDS011;2218;51.408;7.208;2023-09-18T08:09:37;8.80;;;2.63;;
4409;SDS011;2218;51.408;7.208;2023-09-18T08:12:05;3.37;;;1.70;;
4409;SDS011;2218;51.408;7.208;2023-09-18T08:14:33;4.33;;;1.87;;
4409;SDS011;2218;51.408;7.208;2023-09-18T08:17:03;3.40;;;1.63;;
4409;SDS011;2218;51.408;7.208;2023-09-18T08:19:32;4.30;;;2.10;;
4409;SDS011;2218;51.408;7.208;2023-09-18T08:22:00;1.77;;;1.47;;
4409;SDS011;2218;51.408;7.208;2023-09-18T08:24:29;8.90;;;2.10;;
4409;SDS011;2218;51.408;7.208;2023-09-18T08:26:56;4.13;;;2.07;;
4409;SDS011;2218;51.408;7.208;2023-09-18T08:29:23;4.37;;;1.93;;
4409;SDS011;2218;51.408;7.208;2023-09-18T08:31:50;3.90;;;1.80;;
4409;SDS011;2218;51.408;7.208;2023-09-18T08:34:18;3.80;;;1.67;;
4409;SDS011;2218;51.408;7.208;2023-09-18T08:36:45;3.97;;;1.33;;
4409;SDS011;2218;51.408;7.208;2023-09-18T08:39:12;2.60;;;1.80;;
4409;SDS011;2218;51.408;7.208;2023-09-18T08:41:41;3.17;;;1.83;;
4409;SDS011;2218;51.408;7.208;2023-09-18T08:44:09;4.57;;;2.20;;
4409;SDS011;2218;51.408;7.208;2023-09-18T08:46:36;3.90;;;1.70;;
4409;SDS011;2218;51.408;7.208;2023-09-18T08:49:04;4.60;;;1.50;;
4409;SDS011;2218;51.408;7.208;2023-09-18T08:51:35;2.60;;;1.90;;
4409;SDS011;2218;51.408;7.208;2023-09-18T08:54:03;7.20;;;1.87;;
4409;SDS011;2218;51.408;7.208;2023-09-18T08:56:32;1.50;;;1.40;;
4409;SDS011;2218;51.408;7.208;2023-09-18T08:59:00;2.53;;;1.47;;
4409;SDS011;2218;51.408;7.208;2023-09-18T09:01:27;3.70;;;1.93;;
4409;SDS011;2218;51.408;7.208;2023-09-18T09:03:54;1.70;;;1.53;;
4409;SDS011;2218;51.408;7.208;2023-09-18T09:06:21;2.50;;;1.70;;
4409;SDS011;2218;51.408;7.208;2023-09-18T09:08:50;3.70;;;1.97;;
4409;SDS011;2218;51.408;7.208;2023-09-18T09:11:17;1.70;;;1.50;;
4409;SDS011;2218;51.408;7.208;2023-09-18T09:13:44;2.73;;;2.10;;
4409;SDS011;2218;51.408;7.208;2023-09-18T09:16:12;2.57;;;1.67;;
4409;SDS011;2218;51.408;7.208;2023-09-18T09:18:47;3.00;;;1.87;;
4409;SDS011;2218;51.408;7.208;2023-09-18T09:21:15;3.57;;;1.73;;
4409;SDS011;2218;51.408;7.208;2023-09-18T09:23:46;2.90;;;1.80;;
4409;SDS011;2218;51.408;7.208;2023-09-18T09:26:18;3.17;;;1.80;;
4409;SDS011;2218;51.408;7.208;2023-09-18T09:28:48;3.70;;;1.83;;
4409;SDS011;2218;51.408;7.208;2023-09-18T09:31:25;2.77;;;1.67;;
4409;SDS011;2218;51.408;7.208;2023-09-18T09:33:53;1.60;;;1.50;;
4409;SDS011;2218;51.408;7.208;2023-09-18T09:36:21;2.80;;;1.50;;
4409;SDS011;2218;51.408;7.208;2023-09-18T09:38:53;1.97;;;1.40;;
4409;SDS011;2218;51.408;7.208;2023-09-18T09:41:24;3.63;;;1.60;;
4409;SDS011;2218;51.408;7.208;2023-09-18T09:43:52;3.23;;;1.97;;
4409;SDS011;2218;51.408;7.208;2023-09-18T09:46:21;1.40;;;1.30;;
4409;SDS011;2218;51.408;7.208;2023-09-18T09:48:59;2.77;;;1.50;;
4409;SDS011;2218;51.408;7.208;2023-09-18T09:51:28;2.87;;;1.90;;
4409;SDS011;2218;51.408;7.208;2023-09-18T09:53:55;1.70;;;1.40;;
4409;SDS011;2218;51.408;7.208;2023-09-18T09:59:10;3.60;;;1.30;;
4409;SDS011;2218;51.408;7.208;2023-09-18T10:01:39;3.57;;;1.43;;
4409;SDS011;2218;51.408;7.208;2023-09-18T10:04:10;1.73;;;1.43;;
4409;SDS011;2218;51.408;7.208;2023-09-18T10:06:43;1.73;;;1.40;;
4409;SDS011;2218;51.408;7.208;2023-09-18T10:09:14;1.60;;;1.50;;
4409;SDS011;2218;51.408;7.208;2023-09-18T10:11:45;3.87;;;1.40;;
4409;SDS011;2218;51.408;7.208;2023-09-18T10:14:19;3.17;;;1.40;;
4409;SDS011;2218;51.408;7.208;2023-09-18T10:16:54;1.40;;;1.30;;
4409;SDS011;2218;51.408;7.208;2023-09-18T10:19:27;1.73;;;1.40;;
4409;SDS011;2218;51.408;7.208;2023-09-18T10:22:00;3.50;;;1.50;;
4409;SDS011;2218;51.408;7.208;2023-09-18T10:24:41;2.10;;;1.20;;
4409;SDS011;2218;51.408;7.208;2023-09-18T10:27:15;2.37;;;1.50;;
4409;SDS011;2218;51.408;7.208;2023-09-18T10:29:48;1.33;;;1.20;;
4409;SDS011;2218;51.408;7.208;2023-09-18T10:32:17;3.00;;;1.13;;
4409;SDS011;2218;51.408;7.208;2023-09-18T10:34:46;2.50;;;1.30;;
4409;SDS011;2218;51.408;7.208;2023-09-18T10:37:14;2.50;;;1.37;;
4409;SDS011;2218;51.408;7.208;2023-09-18T10:39:41;1.70;;;1.20;;
4409;SDS011;2218;51.408;7.208;2023-09-18T10:42:10;2.90;;;1.33;;
4409;SDS011;2218;51.408;7.208;2023-09-18T10:44:44;1.47;;;1.37;;
4409;SDS011;2218;51.408;7.208;2023-09-18T10:47:11;2.60;;;1.23;;
4409;SDS011;2218;51.408;7.208;2023-09-18T10:49:40;2.63;;;1.33;;
4409;SDS011;2218;51.408;7.208;2023-09-18T10:52:10;1.60;;;1.23;;
4409;SDS011;2218;51.408;7.208;2023-09-18T10:54:38;1.70;;;1.37;;
4409;SDS011;2218;51.408;7.208;2023-09-18T10:57:05;4.33;;;1.60;;
4409;SDS011;2218;51.408;7.208;2023-09-18T10:59:33;1.10;;;1.00;;
4409;SDS011;2218;51.408;7.208;2023-09-18T11:02:03;1.40;;;1.30;;
4409;SDS011;2218;51.408;7.208;2023-09-18T11:04:31;6.17;;;1.33;;
4409;SDS011;2218;51.408;7.208;2023-09-18T11:07:02;4.87;;;1.40;;
4409;SDS011;2218;51.408;7.208;2023-09-18T11:09:41;1.73;;;1.23;;
4409;SDS011;2218;51.408;7.208;2023-09-18T11:12:10;1.63;;;1.37;;
4409;SDS011;2218;51.408;7.208;2023-09-18T11:14:48;2.23;;;1.37;;
4409;SDS011;2218;51.408;7.208;2023-09-18T11:17:30;1.47;;;1.33;;
4409;SDS011;2218;51.408;7.208;2023-09-18T11:20:06;1.57;;;1.30;;
4409;SDS011;2218;51.408;7.208;2023-09-18T11:22:38;1.43;;;1.30;;
4409;SDS011;2218;51.408;7.208;2023-09-18T11:28:02;5.67;;;1.97;;
4409;SDS011;2218;51.408;7.208;2023-09-18T11:30:32;2.80;;;1.40;;
4409;SDS011;2218;51.408;7.208;2023-09-18T11:33:03;1.77;;;1.40;;
4409;SDS011;2218;51.408;7.208;2023-09-18T11:35:31;2.50;;;1.13;;
4409;SDS011;2218;51.408;7.208;2023-09-18T11:38:05;3.10;;;1.30;;
4409;SDS011;2218;51.408;7.208;2023-09-18T11:40:35;1.87;;;1.23;;
4409;SDS011;2218;51.408;7.208;2023-09-18T11:43:18;4.63;;;2.00;;
4409;SDS011;2218;51.408;7.208;2023-09-18T11:45:50;3.13;;;1.63;;
4409;SDS011;2218;51.408;7.208;2023-09-18T11:48:22;3.40;;;1.10;;
4409;SDS011;2218;51.408;7.208;2023-09-18T11:50:53;1.40;;;1.30;;
4409;SDS011;2218;51.408;7.208;2023-09-18T11:53:20;1.17;;;1.00;;
4409;SDS011;2218;51.408;7.208;2023-09-18T11:55:49;2.20;;;1.07;;
4409;SDS011;2218;51.408;7.208;2023-09-18T11:58:16;2.27;;;1.37;;
4409;SDS011;2218;51.408;7.208;2023-09-18T12:00:48;1.30;;;1.20;;
4409;SDS011;2218;51.408;7.208;2023-09-18T12:03:16;2.17;;;1.20;;
4409;SDS011;2218;51.408;7.208;2023-09-18T12:05:55;5.47;;;1.20;;
4409;SDS011;2218;51.408;7.208;2023-09-18T12:08:25;9.00;;;1.20;;
4409;SDS011;2218;51.408;7.208;2023-09-18T12:10:56;2.07;;;1.30;;
4409;SDS011;2218;51.408;7.208;2023-09-18T12:13:24;3.63;;;1.50;;
4409;SDS011;2218;51.408;7.208;2023-09-18T12:15:55;2.30;;;1.00;;
4409;SDS011;2218;51.408;7.208;2023-09-18T12:18:24;1.07;;;0.97;;
4409;SDS011;2218;51.408;7.208;2023-09-18T12:20:55;1.63;;;0.80;;
4409;SDS011;2218;51.408;7.208;2023-09-18T12:23:24;3.17;;;1.27;;
4409;SDS011;2218;51.408;7.208;2023-09-18T12:25:56;1.20;;;1.10;;
4409;SDS011;2218;51.408;7.208;2023-09-18T12:28:26;3.13;;;1.13;;
4409;SDS011;2218;51.408;7.208;2023-09-18T12:30:53;3.33;;;0.87;;
4409;SDS011;2218;51.408;7.208;2023-09-18T12:33:22;3.77;;;1.10;;
4409;SDS011;2218;51.408;7.208;2023-09-18T12:35:49;1.77;;;1.13;;
4409;SDS011;2218;51.408;7.208;2023-09-18T12:38:18;3.10;;;0.90;;
4409;SDS011;2218;51.408;7.208;2023-09-18T12:40:50;1.43;;;1.33;;
4409;SDS011;2218;51.408;7.208;2023-09-18T12:43:18;2.07;;;1.30;;
4409;SDS011;2218;51.408;7.208;2023-09-18T12:45:47;3.47;;;1.53;;
4409;SDS011;2218;51.408;7.208;2023-09-18T12:48:16;1.23;;;1.13;;
4409;SDS011;2218;51.408;7.208;2023-09-18T12:50:47;1.53;;;1.30;;
4409;SDS011;2218;51.408;7.208;2023-09-18T12:53:21;9.03;;;1.23;;
4409;SDS011;2218;51.408;7.208;2023-09-18T12:55:49;2.53;;;1.03;;
4409;SDS011;2218;51.408;7.208;2023-09-18T12:58:18;3.27;;;1.23;;
4409;SDS011;2218;51.408;7.208;2023-09-18T13:00:45;1.33;;;0.90;;
4409;SDS011;2218;51.408;7.208;2023-09-18T13:03:14;4.10;;;0.90;;
4409;SDS011;2218;51.408;7.208;2023-09-18T13:05:42;1.30;;;1.20;;
4409;SDS011;2218;51.408;7.208;2023-09-18T13:08:08;2.40;;;1.00;;
4409;SDS011;2218;51.408;7.208;2023-09-18T13:10:42;1.93;;;1.47;;
4409;SDS011;2218;51.408;7.208;2023-09-18T13:13:16;1.23;;;1.00;;
4409;SDS011;2218;51.408;7.208;2023-09-18T13:15:45;11.27;;;1.30;;
4409;SDS011;2218;51.408;7.208;2023-09-18T13:18:13;1.93;;;1.10;;
4409;SDS011;2218;51.408;7.208;2023-09-18T13:20:42;1.77;;;0.93;;
4409;SDS011;2218;51.408;7.208;2023-09-18T13:23:10;1.40;;;1.10;;
4409;SDS011;2218;51.408;7.208;2023-09-18T13:25:37;4.00;;;1.40;;
4409;SDS011;2218;51.408;7.208;2023-09-18T13:28:10;2.50;;;1.07;;
4409;SDS011;2218;51.408;7.208;2023-09-18T13:30:39;1.60;;;0.90;;
4409;SDS011;2218;51.408;7.208;2023-09-18T13:33:09;1.97;;;1.20;;
4409;SDS011;2218;51.408;7.208;2023-09-18T13:35:38;1.40;;;1.30;;
4409;SDS011;2218;51.408;7.208;2023-09-18T13:38:07;1.73;;;1.13;;
4409;SDS011;2218;51.408;7.208;2023-09-18T13:40:36;4.30;;;1.10;;
4409;SDS011;2218;51.408;7.208;2023-09-18T13:43:04;2.80;;;1.10;;
4409;SDS011;2218;51.408;7.208;2023-09-18T13:45:34;5.40;;;1.20;;
4409;SDS011;2218;51.408;7.208;2023-09-18T13:48:01;2.70;;;1.20;;
4409;SDS011;2218;51.408;7.208;2023-09-18T13:50:29;2.20;;;1.20;;
4409;SDS011;2218;51.408;7.208;2023-09-18T13:52:56;5.33;;;1.27;;
4409;SDS011;2218;51.408;7.208;2023-09-18T13:55:24;1.80;;;1.00;;
4409;SDS011;2218;51.408;7.208;2023-09-18T13:57:51;3.27;;;0.90;;
4409;SDS011;2218;51.408;7.208;2023-09-18T14:00:18;1.40;;;1.30;;
4409;SDS011;2218;51.408;7.208;2023-09-18T14:02:47;7.20;;;0.87;;
4409;SDS011;2218;51.408;7.208;2023-09-18T14:05:14;4.30;;;1.27;;
4409;SDS011;2218;51.408;7.208;2023-09-18T14:07:40;4.30;;;1.10;;
4409;SDS011;2218;51.408;7.208;2023-09-18T14:10:08;5.80;;;1.20;;
4409;SDS011;2218;51.408;7.208;2023-09-18T14:12:37;1.93;;;1.17;;
4409;SDS011;2218;51.408;7.208;2023-09-18T14:15:05;6.03;;;1.00;;
4409;SDS011;2218;51.408;7.208;2023-09-18T14:17:33;1.57;;;1.17;;
4409;SDS011;2218;51.408;7.208;2023-09-18T14:20:02;1.40;;;1.30;;
4409;SDS011;2218;51.408;7.208;2023-09-18T14:22:32;1.07;;;0.97;;
4409;SDS011;2218;51.408;7.208;2023-09-18T14:24:59;1.20;;;1.10;;
4409;SDS011;2218;51.408;7.208;2023-09-18T14:27:29;5.17;;;1.20;;
4409;SDS011;2218;51.408;7.208;2023-09-18T14:29:56;2.93;;;1.27;;
4409;SDS011;2218;51.408;7.208;2023-09-18T14:32:23;1.37;;;1.20;;
4409;SDS011;2218;51.408;7.208;2023-09-18T14:34:51;1.10;;;0.90;;
4409;SDS011;2218;51.408;7.208;2023-09-18T14:37:19;3.00;;;1.20;;
4409;SDS011;2218;51.408;7.208;2023-09-18T14:39:46;1.80;;;1.17;;
4409;SDS011;2218;51.408;7.208;2023-09-18T14:42:13;7.37;;;1.10;;
4409;SDS011;2218;51.408;7.208;2023-09-18T14:44:40;1.77;;;1.30;;
4409;SDS011;2218;51.408;7.208;2023-09-18T14:47:10;4.40;;;1.60;;
4409;SDS011;2218;51.408;7.208;2023-09-18T14:49:37;1.53;;;1.20;;
4409;SDS011;2218;51.408;7.208;2023-09-18T14:52:04;4.13;;;1.33;;
4409;SDS011;2218;51.408;7.208;2023-09-18T14:54:34;1.67;;;1.13;;
4409;SDS011;2218;51.408;7.208;2023-09-18T14:57:01;6.07;;;1.33;;
4409;SDS011;2218;51.408;7.208;2023-09-18T14:59:28;3.83;;;1.10;;
4409;SDS011;2218;51.408;7.208;2023-09-18T15:01:55;2.63;;;1.07;;
4409;SDS011;2218;51.408;7.208;2023-09-18T15:04:22;2.10;;;1.40;;
4409;SDS011;2218;51.408;7.208;2023-09-18T15:06:49;2.30;;;1.10;;
4409;SDS011;2218;51.408;7.208;2023-09-18T15:09:16;2.70;;;1.10;;
4409;SDS011;2218;51.408;7.208;2023-09-18T15:11:44;1.03;;;0.93;;
4409;SDS011;2218;51.408;7.208;2023-09-18T15:14:11;1.30;;;0.97;;
4409;SDS011;2218;51.408;7.208;2023-09-18T15:16:38;3.10;;;1.17;;
4409;SDS011;2218;51.408;7.208;2023-09-18T15:19:05;1.70;;;0.83;;
4409;SDS011;2218;51.408;7.208;2023-09-18T15:21:33;2.60;;;1.40;;
4409;SDS011;2218;51.408;7.208;2023-09-18T15:24:01;1.73;;;1.10;;
4409;SDS011;2218;51.408;7.208;2023-09-18T15:26:29;1.23;;;1.00;;
4409;SDS011;2218;51.408;7.208;2023-09-18T15:28:57;2.00;;;0.83;;
4409;SDS011;2218;51.408;7.208;2023-09-18T15:31:24;1.03;;;0.93;;